sensor_id;sensor_type;location;lat;lon;timestamp;temperature;humidity
30280;DHT22;17097;50.916;5.344;2023-10-31T00:01:20;12.30;99.90
30280;DHT22;17097;50.916;5.344;2023-10-31T00:03:46;12.30;99.90
30280;DHT22;17097;50.916;5.344;2023-10-31T00:06:12;12.30;99.90
30280;DHT22;17097;50.916;5.344;2023-10-31T00:08:40;12.20;99.90
30280;DHT22;17097;50.916;5.344;2023-10-31T00:11:05;12.30;99.90
30280;DHT22;17097;50.916;5.344;2023-10-31T00:13:31;12.40;99.90
30280;DHT22;17097;50.916;5.344;2023-10-31T00:15:57;12.30;99.90
30280;DHT22;17097;50.916;5.344;2023-10-31T00:18:24;12.30;99.90
30280;DHT22;17097;50.916;5.344;2023-10-31T00:20:50;12.20;99.90
30280;DHT22;17097;50.916;5.344;2023-10-31T00:23:15;12.30;99.90
30280;DHT22;17097;50.916;5.344;2023-10-31T00:25:41;12.30;99.90
30280;DHT22;17097;50.916;5.344;2023-10-31T00:28:07;12.30;99.90
30280;DHT22;17097;50.916;5.344;2023-10-31T00:30:33;12.20;99.90
30280;DHT22;17097;50.916;5.344;2023-10-31T00:32:58;12.30;99.90
30280;DHT22;17097;50.916;5.344;2023-10-31T00:35:24;12.30;99.90
30280;DHT22;17097;50.916;5.344;2023-10-31T00:37:49;12.30;99.90
30280;DHT22;17097;50.916;5.344;2023-10-31T00:40:15;12.20;99.90
30280;DHT22;17097;50.916;5.344;2023-10-31T00:42:42;12.10;99.90
30280;DHT22;17097;50.916;5.344;2023-10-31T00:45:10;12.10;99.90
30280;DHT22;17097;50.916;5.344;2023-10-31T00:47:36;12.10;99.90
30280;DHT22;17097;50.916;5.344;2023-10-31T00:50:05;12.10;99.90
30280;DHT22;17097;50.916;5.344;2023-10-31T00:52:30;12.10;99.90
30280;DHT22;17097;50.916;5.344;2023-10-31T00:54:56;12.10;99.90
30280;DHT22;17097;50.916;5.344;2023-10-31T00:57:22;12.20;99.90
30280;DHT22;17097;50.916;5.344;2023-10-31T00:59:47;12.10;99.90
30280;DHT22;17097;50.916;5.344;2023-10-31T01:02:13;12.20;99.90
30280;DHT22;17097;50.916;5.344;2023-10-31T01:04:41;12.20;99.90
30280;DHT22;17097;50.916;5.344;2023-10-31T01:07:07;12.20;99.90
30280;DHT22;17097;50.916;5.344;2023-10-31T01:09:38;12.30;99.90
30280;DHT22;17097;50.916;5.344;2023-10-31T01:12:04;12.30;99.90
30280;DHT22;17097;50.916;5.344;2023-10-31T01:14:30;12.30;99.90
30280;DHT22;17097;50.916;5.344;2023-10-31T01:16:56;12.30;99.90
30280;DHT22;17097;50.916;5.344;2023-10-31T01:19:21;12.20;99.90
30280;DHT22;17097;50.916;5.344;2023-10-31T01:21:47;12.30;99.90
30280;DHT22;17097;50.916;5.344;2023-10-31T01:24:13;12.30;99.90
30280;DHT22;17097;50.916;5.344;2023-10-31T01:26:38;12.30;99.90
30280;DHT22;17097;50.916;5.344;2023-10-31T01:29:04;12.40;99.90
30280;DHT22;17097;50.916;5.344;2023-10-31T01:31:30;12.40;99.90
30280;DHT22;17097;50.916;5.344;2023-10-31T01:33:55;12.40;99.90
30280;DHT22;17097;50.916;5.344;2023-10-31T01:36:25;12.40;99.90
30280;DHT22;17097;50.916;5.344;2023-10-31T01:38:52;12.40;99.90
30280;DHT22;17097;50.916;5.344;2023-10-31T01:41:18;12.50;99.90
30280;DHT22;17097;50.916;5.344;2023-10-31T01:43:44;12.50;99.90
30280;DHT22;17097;50.916;5.344;2023-10-31T01:46:09;12.50;99.90
30280;DHT22;17097;50.916;5.344;2023-10-31T01:48:37;12.50;99.90
30280;DHT22;17097;50.916;5.344;2023-10-31T01:51:04;12.40;99.90
30280;DHT22;17097;50.916;5.344;2023-10-31T01:53:34;12.30;99.90
30280;DHT22;17097;50.916;5.344;2023-10-31T01:56:03;12.30;99.90
30280;DHT22;17097;50.916;5.344;2023-10-31T01:58:32;12.30;99.90
30280;DHT22;17097;50.916;5.344;2023-10-31T02:01:00;12.40;99.90
30280;DHT22;17097;50.916;5.344;2023-10-31T02:03:29;12.40;99.90
30280;DHT22;17097;50.916;5.344;2023-10-31T02:05:56;12.50;99.90
30280;DHT22;17097;50.916;5.344;2023-10-31T02:08:22;12.40;99.90
30280;DHT22;17097;50.916;5.344;2023-10-31T02:10:48;12.50;99.90
30280;DHT22;17097;50.916;5.344;2023-10-31T02:13:15;12.50;99.90
30280;DHT22;17097;50.916;5.344;2023-10-31T02:15:41;12.50;99.90
30280;DHT22;17097;50.916;5.344;2023-10-31T02:18:07;12.40;99.90
30280;DHT22;17097;50.916;5.344;2023-10-31T02:20:33;12.30;99.90
30280;DHT22;17097;50.916;5.344;2023-10-31T02:22:59;12.40;99.90
30280;DHT22;17097;50.916;5.344;2023-10-31T02:25:25;12.50;99.90
30280;DHT22;17097;50.916;5.344;2023-10-31T02:27:51;12.40;99.90
30280;DHT22;17097;50.916;5.344;2023-10-31T02:30:16;12.60;99.90
30280;DHT22;17097;50.916;5.344;2023-10-31T02:32:45;12.40;99.90
30280;DHT22;17097;50.916;5.344;2023-10-31T02:35:10;12.40;99.90
30280;DHT22;17097;50.916;5.344;2023-10-31T02:37:36;12.40;99.90
30280;DHT22;17097;50.916;5.344;2023-10-31T02:40:01;12.50;99.90
30280;DHT22;17097;50.916;5.344;2023-10-31T02:42:28;12.50;99.90
30280;DHT22;17097;50.916;5.344;2023-10-31T02:44:56;12.50;99.90
30280;DHT22;17097;50.916;5.344;2023-10-31T02:47:21;12.60;99.90
30280;DHT22;17097;50.916;5.344;2023-10-31T02:49:49;12.50;99.90
30280;DHT22;17097;50.916;5.344;2023-10-31T02:52:15;12.60;99.90
30280;DHT22;17097;50.916;5.344;2023-10-31T02:54:40;12.50;99.90
30280;DHT22;17097;50.916;5.344;2023-10-31T02:57:06;12.50;99.90
30280;DHT22;17097;50.916;5.344;2023-10-31T02:59:32;12.50;99.90
30280;DHT22;17097;50.916;5.344;2023-10-31T03:01:58;12.40;99.90
30280;DHT22;17097;50.916;5.344;2023-10-31T03:04:23;12.60;99.90
30280;DHT22;17097;50.916;5.344;2023-10-31T03:06:49;12.50;99.90
30280;DHT22;17097;50.916;5.344;2023-10-31T03:09:18;12.50;99.90
30280;DHT22;17097;50.916;5.344;2023-10-31T03:11:46;12.50;99.90
30280;DHT22;17097;50.916;5.344;2023-10-31T03:14:11;12.40;99.90
30280;DHT22;17097;50.916;5.344;2023-10-31T03:16:37;12.40;99.90
30280;DHT22;17097;50.916;5.344;2023-10-31T03:19:04;12.40;99.90
30280;DHT22;17097;50.916;5.344;2023-10-31T03:21:30;12.50;99.90
30280;DHT22;17097;50.916;5.344;2023-10-31T03:23:58;12.50;99.90
30280;DHT22;17097;50.916;5.344;2023-10-31T03:26:23;12.40;99.90
30280;DHT22;17097;50.916;5.344;2023-10-31T03:28:49;12.50;99.90
30280;DHT22;17097;50.916;5.344;2023-10-31T03:31:22;12.60;99.90
30280;DHT22;17097;50.916;5.344;2023-10-31T03:33:51;12.60;99.90
30280;DHT22;17097;50.916;5.344;2023-10-31T03:36:17;12.50;99.90
30280;DHT22;17097;50.916;5.344;2023-10-31T03:38:43;12.40;99.90
30280;DHT22;17097;50.916;5.344;2023-10-31T03:41:09;12.40;99.90
30280;DHT22;17097;50.916;5.344;2023-10-31T03:43:34;12.40;99.90
30280;DHT22;17097;50.916;5.344;2023-10-31T03:46:00;12.50;99.90
30280;DHT22;17097;50.916;5.344;2023-10-31T03:48:26;12.50;99.90
30280;DHT22;17097;50.916;5.344;2023-10-31T03:50:52;12.40;99.90
30280;DHT22;17097;50.916;5.344;2023-10-31T03:53:17;12.50;99.90
30280;DHT22;17097;50.916;5.344;2023-10-31T03:55:45;12.50;99.90
30280;DHT22;17097;50.916;5.344;2023-10-31T03:58:11;12.40;99.90
30280;DHT22;17097;50.916;5.344;2023-10-31T04:00:38;12.50;99.90
30280;DHT22;17097;50.916;5.344;2023-10-31T04:03:04;12.50;99.90
30280;DHT22;17097;50.916;5.344;2023-10-31T04:05:29;12.50;99.90
30280;DHT22;17097;50.916;5.344;2023-10-31T04:07:55;12.40;99.90
30280;DHT22;17097;50.916;5.344;2023-10-31T04:10:21;12.60;99.90
30280;DHT22;17097;50.916;5.344;2023-10-31T04:12:49;12.50;99.90
30280;DHT22;17097;50.916;5.344;2023-10-31T04:15:14;12.40;99.90
30280;DHT22;17097;50.916;5.344;2023-10-31T04:17:40;12.40;99.90
30280;DHT22;17097;50.916;5.344;2023-10-31T04:20:06;12.30;99.90
30280;DHT22;17097;50.916;5.344;2023-10-31T04:22:32;12.30;99.90
30280;DHT22;17097;50.916;5.344;2023-10-31T04:24:58;12.40;99.90
30280;DHT22;17097;50.916;5.344;2023-10-31T04:27:23;12.30;99.90
30280;DHT22;17097;50.916;5.344;2023-10-31T04:29:49;12.30;99.90
30280;DHT22;17097;50.916;5.344;2023-10-31T04:32:15;12.30;99.90
30280;DHT22;17097;50.916;5.344;2023-10-31T04:34:40;12.30;99.90
30280;DHT22;17097;50.916;5.344;2023-10-31T04:37:06;12.20;99.90
30280;DHT22;17097;50.916;5.344;2023-10-31T04:39:32;12.20;99.90
30280;DHT22;17097;50.916;5.344;2023-10-31T04:41:57;12.20;99.90
30280;DHT22;17097;50.916;5.344;2023-10-31T04:44:23;12.20;99.90
30280;DHT22;17097;50.916;5.344;2023-10-31T04:46:51;12.20;99.90
30280;DHT22;17097;50.916;5.344;2023-10-31T04:49:17;12.30;99.90
30280;DHT22;17097;50.916;5.344;2023-10-31T04:51:42;12.20;99.90
30280;DHT22;17097;50.916;5.344;2023-10-31T04:54:08;12.20;99.90
30280;DHT22;17097;50.916;5.344;2023-10-31T04:56:34;12.10;99.90
30280;DHT22;17097;50.916;5.344;2023-10-31T04:59:00;12.10;99.90
30280;DHT22;17097;50.916;5.344;2023-10-31T05:01:28;12.30;99.90
30280;DHT22;17097;50.916;5.344;2023-10-31T05:03:54;12.10;99.90
30280;DHT22;17097;50.916;5.344;2023-10-31T05:06:20;12.20;99.90
30280;DHT22;17097;50.916;5.344;2023-10-31T05:08:46;12.00;99.90
30280;DHT22;17097;50.916;5.344;2023-10-31T05:11:12;12.20;99.90
30280;DHT22;17097;50.916;5.344;2023-10-31T05:13:38;12.20;99.90
30280;DHT22;17097;50.916;5.344;2023-10-31T05:16:04;12.10;99.90
30280;DHT22;17097;50.916;5.344;2023-10-31T05:18:32;12.00;99.90
30280;DHT22;17097;50.916;5.344;2023-10-31T05:20:58;12.10;99.90
30280;DHT22;17097;50.916;5.344;2023-10-31T05:23:23;12.10;99.90
30280;DHT22;17097;50.916;5.344;2023-10-31T05:25:49;12.00;99.90
30280;DHT22;17097;50.916;5.344;2023-10-31T05:28:17;12.00;99.90
30280;DHT22;17097;50.916;5.344;2023-10-31T05:30:43;11.90;99.90
30280;DHT22;17097;50.916;5.344;2023-10-31T05:33:08;11.90;99.90
30280;DHT22;17097;50.916;5.344;2023-10-31T05:35:37;11.90;99.90
30280;DHT22;17097;50.916;5.344;2023-10-31T05:38:03;11.80;99.90
30280;DHT22;17097;50.916;5.344;2023-10-31T05:40:29;11.90;99.90
30280;DHT22;17097;50.916;5.344;2023-10-31T05:42:54;11.80;99.90
30280;DHT22;17097;50.916;5.344;2023-10-31T05:45:20;11.90;99.90
30280;DHT22;17097;50.916;5.344;2023-10-31T05:47:46;11.90;99.90
30280;DHT22;17097;50.916;5.344;2023-10-31T05:50:12;11.90;99.90
30280;DHT22;17097;50.916;5.344;2023-10-31T05:52:37;12.00;99.90
30280;DHT22;17097;50.916;5.344;2023-10-31T05:55:03;11.90;99.90
30280;DHT22;17097;50.916;5.344;2023-10-31T05:57:29;12.00;99.90
30280;DHT22;17097;50.916;5.344;2023-10-31T05:59:54;11.90;99.90
30280;DHT22;17097;50.916;5.344;2023-10-31T06:02:20;11.90;99.90
30280;DHT22;17097;50.916;5.344;2023-10-31T06:04:46;11.90;99.90
30280;DHT22;17097;50.916;5.344;2023-10-31T06:07:11;11.80;99.90
30280;DHT22;17097;50.916;5.344;2023-10-31T06:09:37;11.90;99.90
30280;DHT22;17097;50.916;5.344;2023-10-31T06:12:05;11.80;99.90
30280;DHT22;17097;50.916;5.344;2023-10-31T06:14:31;11.70;99.90
30280;DHT22;17097;50.916;5.344;2023-10-31T06:16:57;11.70;99.90
30280;DHT22;17097;50.916;5.344;2023-10-31T06:19:24;11.80;99.90
30280;DHT22;17097;50.916;5.344;2023-10-31T06:21:50;11.70;99.90
30280;DHT22;17097;50.916;5.344;2023-10-31T06:24:18;11.60;99.90
30280;DHT22;17097;50.916;5.344;2023-10-31T06:26:43;11.60;99.90
30280;DHT22;17097;50.916;5.344;2023-10-31T06:29:09;11.80;99.90
30280;DHT22;17097;50.916;5.344;2023-10-31T06:31:35;11.70;99.90
30280;DHT22;17097;50.916;5.344;2023-10-31T06:34:03;11.70;99.90
30280;DHT22;17097;50.916;5.344;2023-10-31T06:36:28;11.80;99.90
30280;DHT22;17097;50.916;5.344;2023-10-31T06:38:54;11.90;99.90
30280;DHT22;17097;50.916;5.344;2023-10-31T06:41:20;12.10;99.90
30280;DHT22;17097;50.916;5.344;2023-10-31T06:43:45;12.10;99.90
30280;DHT22;17097;50.916;5.344;2023-10-31T06:46:11;11.90;99.90
30280;DHT22;17097;50.916;5.344;2023-10-31T06:48:39;11.80;99.90
30280;DHT22;17097;50.916;5.344;2023-10-31T06:51:04;11.80;99.90
30280;DHT22;17097;50.916;5.344;2023-10-31T06:53:30;11.80;99.90
30280;DHT22;17097;50.916;5.344;2023-10-31T06:55:56;11.90;99.90
30280;DHT22;17097;50.916;5.344;2023-10-31T06:58:21;11.80;99.90
30280;DHT22;17097;50.916;5.344;2023-10-31T07:00:47;11.90;99.90
30280;DHT22;17097;50.916;5.344;2023-10-31T07:03:13;12.00;99.90
30280;DHT22;17097;50.916;5.344;2023-10-31T07:05:41;12.10;99.90
30280;DHT22;17097;50.916;5.344;2023-10-31T07:08:07;12.20;99.90
30280;DHT22;17097;50.916;5.344;2023-10-31T07:10:33;12.10;99.90
30280;DHT22;17097;50.916;5.344;2023-10-31T07:12:59;12.30;99.90
30280;DHT22;17097;50.916;5.344;2023-10-31T07:15:27;12.40;99.90
30280;DHT22;17097;50.916;5.344;2023-10-31T07:17:53;12.50;99.90
30280;DHT22;17097;50.916;5.344;2023-10-31T07:20:19;12.60;99.90
30280;DHT22;17097;50.916;5.344;2023-10-31T07:22:44;12.70;99.90
30280;DHT22;17097;50.916;5.344;2023-10-31T07:25:11;12.80;99.90
30280;DHT22;17097;50.916;5.344;2023-10-31T07:27:36;13.30;99.90
30280;DHT22;17097;50.916;5.344;2023-10-31T07:30:03;14.00;99.90
30280;DHT22;17097;50.916;5.344;2023-10-31T07:32:30;14.70;99.90
30280;DHT22;17097;50.916;5.344;2023-10-31T07:34:55;15.40;99.90
30280;DHT22;17097;50.916;5.344;2023-10-31T07:37:21;15.90;99.90
30280;DHT22;17097;50.916;5.344;2023-10-31T07:39:46;16.10;99.90
30280;DHT22;17097;50.916;5.344;2023-10-31T07:42:12;16.40;99.90
30280;DHT22;17097;50.916;5.344;2023-10-31T07:44:40;16.20;99.90
30280;DHT22;17097;50.916;5.344;2023-10-31T07:47:06;16.20;99.90
30280;DHT22;17097;50.916;5.344;2023-10-31T07:49:32;16.00;99.90
30280;DHT22;17097;50.916;5.344;2023-10-31T07:51:58;16.20;99.90
30280;DHT22;17097;50.916;5.344;2023-10-31T07:54:23;16.80;99.90
30280;DHT22;17097;50.916;5.344;2023-10-31T07:56:52;16.90;99.90
30280;DHT22;17097;50.916;5.344;2023-10-31T07:59:17;17.10;99.90
30280;DHT22;17097;50.916;5.344;2023-10-31T08:01:45;17.00;99.90
30280;DHT22;17097;50.916;5.344;2023-10-31T08:04:13;17.30;99.90
30280;DHT22;17097;50.916;5.344;2023-10-31T08:06:40;17.20;99.90
30280;DHT22;17097;50.916;5.344;2023-10-31T08:09:06;16.50;99.90
30280;DHT22;17097;50.916;5.344;2023-10-31T08:11:32;16.60;99.90
30280;DHT22;17097;50.916;5.344;2023-10-31T08:13:59;16.50;99.90
30280;DHT22;17097;50.916;5.344;2023-10-31T08:16:25;16.90;99.90
30280;DHT22;17097;50.916;5.344;2023-10-31T08:18:51;17.10;99.90
30280;DHT22;17097;50.916;5.344;2023-10-31T08:21:18;17.50;99.90
30280;DHT22;17097;50.916;5.344;2023-10-31T08:23:45;17.60;99.90
30280;DHT22;17097;50.916;5.344;2023-10-31T08:26:12;17.60;99.90
30280;DHT22;17097;50.916;5.344;2023-10-31T08:28:38;17.30;99.90
30280;DHT22;17097;50.916;5.344;2023-10-31T08:31:04;17.20;99.90
30280;DHT22;17097;50.916;5.344;2023-10-31T08:33:30;16.90;99.90
30280;DHT22;17097;50.916;5.344;2023-10-31T08:35:55;16.80;99.90
30280;DHT22;17097;50.916;5.344;2023-10-31T08:38:23;16.50;99.90
30280;DHT22;17097;50.916;5.344;2023-10-31T08:40:49;16.40;99.90
30280;DHT22;17097;50.916;5.344;2023-10-31T08:43:15;16.10;99.90
30280;DHT22;17097;50.916;5.344;2023-10-31T08:45:43;15.90;99.90
30280;DHT22;17097;50.916;5.344;2023-10-31T08:48:08;16.00;99.90
30280;DHT22;17097;50.916;5.344;2023-10-31T08:50:34;15.90;99.90
30280;DHT22;17097;50.916;5.344;2023-10-31T08:53:00;15.50;99.90
30280;DHT22;17097;50.916;5.344;2023-10-31T08:55:28;15.20;99.90
30280;DHT22;17097;50.916;5.344;2023-10-31T08:57:53;15.10;99.90
30280;DHT22;17097;50.916;5.344;2023-10-31T09:00:19;15.10;99.90
30280;DHT22;17097;50.916;5.344;2023-10-31T09:02:47;15.10;99.90
30280;DHT22;17097;50.916;5.344;2023-10-31T09:05:13;15.20;99.90
30280;DHT22;17097;50.916;5.344;2023-10-31T09:07:38;15.50;99.90
30280;DHT22;17097;50.916;5.344;2023-10-31T09:10:07;15.80;99.90
30280;DHT22;17097;50.916;5.344;2023-10-31T09:12:33;16.00;99.90
30280;DHT22;17097;50.916;5.344;2023-10-31T09:15:01;16.00;99.90
30280;DHT22;17097;50.916;5.344;2023-10-31T09:17:26;15.90;99.90
30280;DHT22;17097;50.916;5.344;2023-10-31T09:19:52;15.90;99.90
30280;DHT22;17097;50.916;5.344;2023-10-31T09:22:19;15.60;99.90
30280;DHT22;17097;50.916;5.344;2023-10-31T09:24:45;15.40;99.90
30280;DHT22;17097;50.916;5.344;2023-10-31T09:27:10;15.50;99.90
30280;DHT22;17097;50.916;5.344;2023-10-31T09:29:38;15.60;99.90
30280;DHT22;17097;50.916;5.344;2023-10-31T09:32:04;15.60;99.90
30280;DHT22;17097;50.916;5.344;2023-10-31T09:34:31;15.60;99.90
30280;DHT22;17097;50.916;5.344;2023-10-31T09:36:58;15.80;99.90
30280;DHT22;17097;50.916;5.344;2023-10-31T09:39:25;16.00;99.90
30280;DHT22;17097;50.916;5.344;2023-10-31T09:41:53;16.50;99.90
30280;DHT22;17097;50.916;5.344;2023-10-31T09:44:19;16.80;99.90
30280;DHT22;17097;50.916;5.344;2023-10-31T09:46:45;17.30;99.90
30280;DHT22;17097;50.916;5.344;2023-10-31T09:49:11;17.60;99.90
30280;DHT22;17097;50.916;5.344;2023-10-31T09:51:37;17.80;99.90
30280;DHT22;17097;50.916;5.344;2023-10-31T09:54:05;17.90;99.90
30280;DHT22;17097;50.916;5.344;2023-10-31T09:56:32;18.10;99.90
30280;DHT22;17097;50.916;5.344;2023-10-31T09:59:04;18.00;99.90
30280;DHT22;17097;50.916;5.344;2023-10-31T10:01:30;18.60;99.90
30280;DHT22;17097;50.916;5.344;2023-10-31T10:03:58;19.10;99.90
30280;DHT22;17097;50.916;5.344;2023-10-31T10:06:29;19.20;99.90
30280;DHT22;17097;50.916;5.344;2023-10-31T10:08:55;18.70;99.90
30280;DHT22;17097;50.916;5.344;2023-10-31T10:11:22;18.40;99.90
30280;DHT22;17097;50.916;5.344;2023-10-31T10:13:47;18.50;99.90
30280;DHT22;17097;50.916;5.344;2023-10-31T10:16:30;18.50;99.90
30280;DHT22;17097;50.916;5.344;2023-10-31T10:18:57;18.00;99.90
30280;DHT22;17097;50.916;5.344;2023-10-31T10:21:25;17.60;99.90
30280;DHT22;17097;50.916;5.344;2023-10-31T10:23:53;17.20;99.90
30280;DHT22;17097;50.916;5.344;2023-10-31T10:26:19;17.00;99.90
30280;DHT22;17097;50.916;5.344;2023-10-31T10:28:51;16.90;99.90
30280;DHT22;17097;50.916;5.344;2023-10-31T10:31:17;16.90;99.90
30280;DHT22;17097;50.916;5.344;2023-10-31T10:33:42;16.80;99.90
30280;DHT22;17097;50.916;5.344;2023-10-31T10:36:10;16.40;99.90
30280;DHT22;17097;50.916;5.344;2023-10-31T10:38:36;16.50;99.90
30280;DHT22;17097;50.916;5.344;2023-10-31T10:41:04;16.20;99.90
30280;DHT22;17097;50.916;5.344;2023-10-31T10:43:36;16.30;99.90
30280;DHT22;17097;50.916;5.344;2023-10-31T10:46:04;16.40;99.90
30280;DHT22;17097;50.916;5.344;2023-10-31T10:48:33;16.40;99.90
30280;DHT22;17097;50.916;5.344;2023-10-31T10:53:51;16.50;99.90
30280;DHT22;17097;50.916;5.344;2023-10-31T10:56:34;16.50;99.90
30280;DHT22;17097;50.916;5.344;2023-10-31T10:59:20;16.40;99.90
30280;DHT22;17097;50.916;5.344;2023-10-31T11:01:46;16.40;99.90
30280;DHT22;17097;50.916;5.344;2023-10-31T11:04:18;16.40;99.90
30280;DHT22;17097;50.916;5.344;2023-10-31T11:06:44;16.50;99.90
30280;DHT22;17097;50.916;5.344;2023-10-31T11:09:14;16.40;99.90
30280;DHT22;17097;50.916;5.344;2023-10-31T11:11:43;16.20;99.90
30280;DHT22;17097;50.916;5.344;2023-10-31T11:14:15;16.10;99.90
30280;DHT22;17097;50.916;5.344;2023-10-31T11:16:57;16.10;99.90
30280;DHT22;17097;50.916;5.344;2023-10-31T11:19:26;16.20;99.90
30280;DHT22;17097;50.916;5.344;2023-10-31T11:22:05;16.10;99.90
30280;DHT22;17097;50.916;5.344;2023-10-31T11:24:36;16.00;99.90
30280;DHT22;17097;50.916;5.344;2023-10-31T11:27:03;16.10;99.90
30280;DHT22;17097;50.916;5.344;2023-10-31T11:29:31;16.10;99.90
30280;DHT22;17097;50.916;5.344;2023-10-31T11:31:59;15.90;99.90
30280;DHT22;17097;50.916;5.344;2023-10-31T11:34:31;15.90;99.90
30280;DHT22;17097;50.916;5.344;2023-10-31T11:37:25;15.90;99.90
30280;DHT22;17097;50.916;5.344;2023-10-31T11:42:41;16.00;99.90
30280;DHT22;17097;50.916;5.344;2023-10-31T11:45:13;16.00;99.90
30280;DHT22;17097;50.916;5.344;2023-10-31T11:47:50;15.90;99.90
30280;DHT22;17097;50.916;5.344;2023-10-31T11:50:16;16.10;99.90
30280;DHT22;17097;50.916;5.344;2023-10-31T11:52:43;16.10;99.90
30280;DHT22;17097;50.916;5.344;2023-10-31T11:55:14;16.00;99.90
30280;DHT22;17097;50.916;5.344;2023-10-31T11:57:40;16.00;99.90
30280;DHT22;17097;50.916;5.344;2023-10-31T12:00:06;15.80;99.90
30280;DHT22;17097;50.916;5.344;2023-10-31T12:02:35;15.90;99.90
30280;DHT22;17097;50.916;5.344;2023-10-31T12:05:11;16.00;99.90
30280;DHT22;17097;50.916;5.344;2023-10-31T12:07:44;15.90;99.90
30280;DHT22;17097;50.916;5.344;2023-10-31T12:10:10;16.00;99.90
30280;DHT22;17097;50.916;5.344;2023-10-31T12:12:36;15.90;99.90
30280;DHT22;17097;50.916;5.344;2023-10-31T12:15:08;15.90;99.90
30280;DHT22;17097;50.916;5.344;2023-10-31T12:17:34;16.00;99.90
30280;DHT22;17097;50.916;5.344;2023-10-31T12:20:07;16.10;99.90
30280;DHT22;17097;50.916;5.344;2023-10-31T12:22:34;16.40;99.90
30280;DHT22;17097;50.916;5.344;2023-10-31T12:25:04;16.30;99.90
30280;DHT22;17097;50.916;5.344;2023-10-31T12:27:42;16.20;99.90
30280;DHT22;17097;50.916;5.344;2023-10-31T12:30:12;16.30;99.90
30280;DHT22;17097;50.916;5.344;2023-10-31T12:32:40;16.30;99.90
30280;DHT22;17097;50.916;5.344;2023-10-31T12:35:08;16.30;99.90
30280;DHT22;17097;50.916;5.344;2023-10-31T12:37:36;16.40;99.90
30280;DHT22;17097;50.916;5.344;2023-10-31T12:40:02;16.40;99.90
30280;DHT22;17097;50.916;5.344;2023-10-31T12:42:33;16.30;99.90
30280;DHT22;17097;50.916;5.344;2023-10-31T12:44:59;16.40;99.90
30280;DHT22;17097;50.916;5.344;2023-10-31T12:47:27;16.30;99.90
30280;DHT22;17097;50.916;5.344;2023-10-31T12:50:15;16.20;99.90
30280;DHT22;17097;50.916;5.344;2023-10-31T12:53:00;16.20;99.90
30280;DHT22;17097;50.916;5.344;2023-10-31T12:55:30;15.90;99.90
30280;DHT22;17097;50.916;5.344;2023-10-31T12:57:56;15.90;99.90
30280;DHT22;17097;50.916;5.344;2023-10-31T13:00:30;15.90;99.90
30280;DHT22;17097;50.916;5.344;2023-10-31T13:03:02;15.80;99.90
30280;DHT22;17097;50.916;5.344;2023-10-31T13:05:28;15.80;99.90
30280;DHT22;17097;50.916;5.344;2023-10-31T13:07:55;15.70;99.90
30280;DHT22;17097;50.916;5.344;2023-10-31T13:10:25;15.70;99.90
30280;DHT22;17097;50.916;5.344;2023-10-31T13:12:52;15.70;99.90
30280;DHT22;17097;50.916;5.344;2023-10-31T13:15:22;15.60;99.90
30280;DHT22;17097;50.916;5.344;2023-10-31T13:17:51;15.50;99.90
30280;DHT22;17097;50.916;5.344;2023-10-31T13:20:18;15.60;99.90
30280;DHT22;17097;50.916;5.344;2023-10-31T13:22:47;15.40;99.90
30280;DHT22;17097;50.916;5.344;2023-10-31T13:25:14;15.40;99.90
30280;DHT22;17097;50.916;5.344;2023-10-31T13:27:41;15.30;99.90
30280;DHT22;17097;50.916;5.344;2023-10-31T13:30:09;15.20;99.90
30280;DHT22;17097;50.916;5.344;2023-10-31T13:32:39;15.10;99.90
30280;DHT22;17097;50.916;5.344;2023-10-31T13:35:07;15.00;99.90
30280;DHT22;17097;50.916;5.344;2023-10-31T13:37:36;15.00;99.90
30280;DHT22;17097;50.916;5.344;2023-10-31T13:40:03;15.10;99.90
30280;DHT22;17097;50.916;5.344;2023-10-31T13:42:29;15.10;99.90
30280;DHT22;17097;50.916;5.344;2023-10-31T13:44:55;15.00;99.90
30280;DHT22;17097;50.916;5.344;2023-10-31T13:47:20;15.10;99.90
30280;DHT22;17097;50.916;5.344;2023-10-31T13:49:46;15.10;99.90
30280;DHT22;17097;50.916;5.344;2023-10-31T13:52:12;15.10;99.90
30280;DHT22;17097;50.916;5.344;2023-10-31T13:54:38;15.10;99.90
30280;DHT22;17097;50.916;5.344;2023-10-31T13:57:08;15.10;99.90
30280;DHT22;17097;50.916;5.344;2023-10-31T13:59:34;14.90;99.90
30280;DHT22;17097;50.916;5.344;2023-10-31T14:02:00;14.80;99.90
30280;DHT22;17097;50.916;5.344;2023-10-31T14:04:25;14.70;99.90
30280;DHT22;17097;50.916;5.344;2023-10-31T14:06:51;14.90;99.90
30280;DHT22;17097;50.916;5.344;2023-10-31T14:09:17;14.80;99.90
30280;DHT22;17097;50.916;5.344;2023-10-31T14:11:45;14.80;99.90
30280;DHT22;17097;50.916;5.344;2023-10-31T14:14:10;14.60;99.90
30280;DHT22;17097;50.916;5.344;2023-10-31T14:16:41;14.50;99.90
30280;DHT22;17097;50.916;5.344;2023-10-31T14:19:10;14.50;99.90
30280;DHT22;17097;50.916;5.344;2023-10-31T14:21:37;14.40;99.90
30280;DHT22;17097;50.916;5.344;2023-10-31T14:24:03;14.40;99.90
30280;DHT22;17097;50.916;5.344;2023-10-31T14:26:31;14.30;99.90
30280;DHT22;17097;50.916;5.344;2023-10-31T14:28:59;14.30;99.90
30280;DHT22;17097;50.916;5.344;2023-10-31T14:31:25;14.30;99.90
30280;DHT22;17097;50.916;5.344;2023-10-31T14:33:51;14.40;99.90
30280;DHT22;17097;50.916;5.344;2023-10-31T14:36:17;14.30;99.90
30280;DHT22;17097;50.916;5.344;2023-10-31T14:38:43;14.30;99.90
30280;DHT22;17097;50.916;5.344;2023-10-31T14:41:11;14.40;99.90
30280;DHT22;17097;50.916;5.344;2023-10-31T14:43:39;14.30;99.90
30280;DHT22;17097;50.916;5.344;2023-10-31T14:46:04;14.20;99.90
30280;DHT22;17097;50.916;5.344;2023-10-31T14:48:30;14.20;99.90
30280;DHT22;17097;50.916;5.344;2023-10-31T14:50:56;14.00;99.90
30280;DHT22;17097;50.916;5.344;2023-10-31T14:53:22;14.00;99.90
30280;DHT22;17097;50.916;5.344;2023-10-31T14:55:48;14.00;99.90
30280;DHT22;17097;50.916;5.344;2023-10-31T14:58:14;14.20;99.90
30280;DHT22;17097;50.916;5.344;2023-10-31T15:00:41;14.20;99.90
30280;DHT22;17097;50.916;5.344;2023-10-31T15:03:07;14.20;99.90
30280;DHT22;17097;50.916;5.344;2023-10-31T15:05:33;14.20;99.90
30280;DHT22;17097;50.916;5.344;2023-10-31T15:07:59;14.20;99.90
30280;DHT22;17097;50.916;5.344;2023-10-31T15:10:25;14.20;99.90
30280;DHT22;17097;50.916;5.344;2023-10-31T15:12:53;14.20;99.90
30280;DHT22;17097;50.916;5.344;2023-10-31T15:15:19;14.20;99.90
30280;DHT22;17097;50.916;5.344;2023-10-31T15:17:45;14.30;99.90
30280;DHT22;17097;50.916;5.344;2023-10-31T15:20:11;14.30;99.90
30280;DHT22;17097;50.916;5.344;2023-10-31T15:22:41;14.40;99.90
30280;DHT22;17097;50.916;5.344;2023-10-31T15:25:11;14.40;99.90
30280;DHT22;17097;50.916;5.344;2023-10-31T15:27:37;14.30;99.90
30280;DHT22;17097;50.916;5.344;2023-10-31T15:30:06;14.30;99.90
30280;DHT22;17097;50.916;5.344;2023-10-31T15:32:33;14.40;99.90
30280;DHT22;17097;50.916;5.344;2023-10-31T15:34:59;14.40;99.90